createdAt,value
2022-08-25T00:02:07.552Z,5.55
2022-08-25T00:04:38.050Z,4.30
2022-08-25T00:07:06.744Z,4.72
2022-08-25T00:09:35.329Z,5.07
2022-08-25T00:12:04.987Z,4.88
2022-08-25T00:14:37.413Z,4.72
2022-08-25T00:17:06.927Z,4.45
2022-08-25T00:19:37.930Z,4.60
2022-08-25T00:22:07.738Z,4.05
2022-08-25T00:24:36.067Z,4.18
2022-08-25T00:27:04.598Z,4.90
2022-08-25T00:29:34.024Z,4.65
2022-08-25T00:32:01.868Z,4.38
2022-08-25T00:34:35.493Z,4.80
2022-08-25T00:37:07.327Z,4.97
2022-08-25T00:39:35.197Z,4.85
2022-08-25T00:42:04.298Z,4.32
2022-08-25T00:44:35.645Z,5.20
2022-08-25T00:47:05.243Z,4.38
2022-08-25T00:49:42.054Z,4.40
2022-08-25T00:52:16.554Z,4.40
2022-08-25T00:55:06.230Z,4.55
2022-08-25T00:58:17.008Z,4.45
2022-08-25T01:00:49.498Z,4.95
2022-08-25T01:03:19.201Z,4.35
2022-08-25T01:05:48.406Z,4.47
2022-08-25T01:08:19.605Z,4.90
2022-08-25T01:10:49.323Z,4.68
2022-08-25T01:13:21.378Z,5.15
2022-08-25T01:15:52.941Z,4.63
2022-08-25T01:18:21.878Z,4.50
2022-08-25T01:20:57.948Z,5.40
2022-08-25T01:23:27.129Z,5.05
2022-08-25T01:26:21.134Z,4.88
2022-08-25T01:29:15.501Z,4.90
2022-08-25T01:31:43.518Z,4.88
2022-08-25T01:34:12.465Z,5.45
2022-08-25T01:36:42.163Z,5.53
2022-08-25T01:39:11.667Z,4.93
2022-08-25T01:42:05.497Z,5.60
2022-08-25T01:44:35.976Z,6.03
2022-08-25T01:47:06.085Z,5.55
2022-08-25T01:49:34.850Z,5.75
2022-08-25T01:52:20.195Z,6.18
2022-08-25T01:54:49.599Z,6.38
2022-08-25T01:57:17.606Z,6.75
2022-08-25T01:59:45.815Z,5.80
2022-08-25T02:02:13.890Z,6.50
2022-08-25T02:04:44.429Z,6.65
2022-08-25T02:07:12.298Z,6.00
2022-08-25T02:09:40.428Z,6.57
2022-08-25T02:12:12.305Z,7.50
2022-08-25T02:14:40.058Z,7.20
2022-08-25T02:17:09.829Z,7.57
2022-08-25T02:19:37.722Z,7.40
2022-08-25T02:22:05.917Z,6.78
2022-08-25T02:24:34.941Z,7.32
2022-08-25T02:27:04.075Z,7.68
2022-08-25T02:29:32.437Z,7.30
2022-08-25T02:32:00.536Z,7.68
2022-08-25T02:34:28.344Z,7.32
2022-08-25T02:36:56.034Z,7.60
2022-08-25T02:39:23.873Z,7.70
2022-08-25T02:41:51.610Z,7.57
2022-08-25T02:44:19.304Z,8.40
2022-08-25T02:46:47.196Z,7.82
2022-08-25T02:49:14.822Z,8.75
2022-08-25T02:51:42.967Z,8.15
2022-08-25T02:54:11.130Z,8.45
2022-08-25T02:56:38.878Z,8.30
2022-08-25T02:59:06.953Z,8.82
2022-08-25T03:01:34.910Z,8.20
2022-08-25T03:04:02.987Z,9.60
2022-08-25T03:06:31.322Z,8.45
2022-08-25T03:08:59.485Z,7.93
2022-08-25T03:11:27.164Z,8.57
2022-08-25T03:13:56.441Z,8.50
2022-08-25T03:16:27.634Z,7.85
2022-08-25T03:18:56.289Z,8.82
2022-08-25T03:21:25.838Z,8.23
2022-08-25T03:23:53.567Z,9.38
2022-08-25T03:26:40.249Z,8.38
2022-08-25T03:29:08.631Z,8.55
2022-08-25T03:31:36.816Z,9.82
2022-08-25T03:34:05.448Z,9.73
2022-08-25T03:36:33.407Z,9.65
2022-08-25T03:39:01.130Z,9.00
2022-08-25T03:41:32.517Z,9.15
2022-08-25T03:44:02.022Z,9.73
2022-08-25T03:46:34.358Z,9.55
2022-08-25T03:49:04.532Z,10.00
2022-08-25T03:51:36.172Z,11.13
2022-08-25T03:54:05.035Z,10.63
2022-08-25T03:56:33.053Z,9.75
2022-08-25T03:59:01.089Z,9.45
2022-08-25T04:01:29.251Z,9.65
2022-08-25T04:03:57.114Z,9.95
2022-08-25T04:06:24.794Z,10.38
2022-08-25T04:08:52.911Z,11.52
2022-08-25T04:11:23.041Z,9.23
2022-08-25T04:13:51.948Z,9.90
2022-08-25T04:16:26.598Z,10.82
2022-08-25T04:18:56.115Z,10.77
2022-08-25T04:21:25.433Z,10.48
2022-08-25T04:23:55.278Z,10.30
2022-08-25T04:26:35.385Z,10.45
2022-08-25T04:29:05.826Z,9.98
2022-08-25T04:31:34.229Z,11.15
2022-08-25T04:34:14.766Z,10.40
2022-08-25T04:36:55.535Z,10.52
2022-08-25T04:39:23.284Z,10.07
2022-08-25T04:41:51.473Z,10.25
2022-08-25T04:44:19.341Z,11.35
2022-08-25T04:46:47.234Z,10.93
2022-08-25T04:49:15.112Z,9.23
2022-08-25T04:51:43.477Z,9.95
2022-08-25T04:54:16.969Z,10.50
2022-08-25T04:56:45.398Z,10.13
2022-08-25T04:59:14.921Z,10.30
2022-08-25T05:01:43.745Z,10.20
2022-08-25T05:04:28.230Z,10.45
2022-08-25T05:06:58.310Z,10.30
2022-08-25T05:09:27.457Z,11.57
2022-08-25T05:11:55.882Z,10.35
2022-08-25T05:14:26.145Z,10.48
2022-08-25T05:16:56.326Z,10.38
2022-08-25T05:19:24.629Z,11.05
2022-08-25T05:21:52.733Z,10.35
2022-08-25T05:24:22.190Z,9.77
2022-08-25T05:26:50.447Z,9.32
2022-08-25T05:29:18.376Z,10.88
2022-08-25T05:31:50.405Z,10.23
2022-08-25T05:34:19.723Z,11.15
2022-08-25T05:36:48.735Z,10.20
2022-08-25T05:39:16.631Z,11.13
2022-08-25T05:41:44.422Z,10.23
2022-08-25T05:44:12.924Z,9.95
2022-08-25T05:46:40.827Z,11.45
2022-08-25T05:49:08.473Z,11.02
2022-08-25T05:51:36.390Z,9.60
2022-08-25T05:54:04.093Z,10.25
2022-08-25T05:56:32.474Z,10.23
2022-08-25T05:59:00.354Z,9.40
2022-08-25T06:01:48.113Z,10.95
2022-08-25T06:04:20.363Z,9.10
2022-08-25T06:06:48.833Z,9.75
2022-08-25T06:09:16.610Z,11.20
2022-08-25T06:11:44.893Z,9.45
2022-08-25T06:14:12.568Z,10.63
2022-08-25T06:16:40.903Z,11.15
2022-08-25T06:19:10.501Z,11.05
2022-08-25T06:21:42.072Z,10.45
2022-08-25T06:24:15.172Z,10.82
2022-08-25T06:26:44.231Z,9.50
2022-08-25T06:29:14.172Z,10.93
2022-08-25T06:31:42.853Z,9.00
2022-08-25T06:34:11.360Z,9.82
2022-08-25T06:36:39.696Z,8.90
2022-08-25T06:39:07.725Z,9.18
2022-08-25T06:41:38.978Z,9.80
2022-08-25T06:44:07.101Z,8.73
2022-08-25T06:46:36.530Z,9.20
2022-08-25T06:49:06.927Z,9.05
2022-08-25T06:51:38.158Z,9.40
2022-08-25T06:54:10.223Z,8.55
2022-08-25T06:56:40.045Z,7.40
2022-08-25T06:59:09.076Z,8.60
2022-08-25T07:01:37.866Z,8.98
2022-08-25T07:04:11.738Z,8.65
2022-08-25T07:06:42.845Z,7.72
2022-08-25T07:09:12.696Z,8.05
2022-08-25T07:11:42.166Z,8.05
2022-08-25T07:14:12.426Z,8.15
2022-08-25T07:16:46.011Z,7.53
2022-08-25T07:19:20.706Z,7.90
2022-08-25T07:21:52.434Z,7.53
2022-08-25T07:24:20.800Z,8.05
2022-08-25T07:26:49.051Z,7.95
2022-08-25T07:29:31.976Z,8.30
2022-08-25T07:32:05.216Z,7.22
2022-08-25T07:34:52.799Z,7.93
2022-08-25T07:37:47.523Z,7.25
2022-08-25T07:40:17.598Z,7.75
2022-08-25T07:42:46.078Z,7.15
2022-08-25T07:45:15.511Z,8.20
2022-08-25T07:47:45.166Z,7.47
2022-08-25T07:50:14.644Z,7.50
2022-08-25T07:52:42.849Z,7.00
2022-08-25T07:55:11.342Z,7.25
2022-08-25T07:57:42.498Z,7.68
2022-08-25T08:00:13.813Z,7.65
2022-08-25T08:02:42.761Z,6.63
2022-08-25T08:05:12.523Z,6.63
2022-08-25T08:07:43.163Z,6.45
2022-08-25T08:10:48.190Z,6.82
2022-08-25T08:13:03.286Z,7.00
2022-08-25T08:15:31.120Z,6.80
2022-08-25T08:18:00.406Z,6.40
2022-08-25T08:20:29.096Z,6.28
2022-08-25T08:22:56.977Z,6.43
2022-08-25T08:25:26.631Z,5.93
2022-08-25T08:27:56.363Z,5.25
2022-08-25T08:30:26.165Z,6.32
2022-08-25T08:33:11.490Z,6.13
2022-08-25T08:35:44.005Z,5.95
2022-08-25T08:38:18.420Z,6.25
2022-08-25T08:41:40.082Z,6.50
2022-08-25T08:44:42.403Z,6.30
2022-08-25T08:47:34.881Z,5.78
2022-08-25T08:50:28.013Z,5.57
2022-08-25T08:53:15.157Z,5.15
2022-08-25T08:56:12.470Z,5.68
2022-08-25T08:58:43.423Z,5.10
2022-08-25T09:01:24.583Z,5.25
2022-08-25T09:04:04.950Z,5.45
2022-08-25T09:06:45.195Z,5.18
2022-08-25T09:09:20.396Z,5.40
2022-08-25T09:11:51.095Z,5.65
2022-08-25T09:14:41.991Z,4.82
2022-08-25T09:17:17.308Z,4.97
2022-08-25T09:19:54.253Z,5.00
2022-08-25T09:22:43.106Z,5.55
2022-08-25T09:28:41.812Z,4.07
2022-08-25T09:31:40.390Z,4.47
2022-08-25T09:34:15.608Z,4.50
2022-08-25T09:36:45.403Z,4.25
2022-08-25T09:39:12.999Z,4.47
2022-08-25T09:41:51.545Z,4.55
2022-08-25T09:44:45.967Z,4.65
2022-08-25T09:47:28.003Z,5.82
2022-08-25T09:50:01.625Z,5.00
2022-08-25T09:52:41.827Z,5.30
2022-08-25T09:55:13.593Z,4.53
2022-08-25T09:57:53.177Z,4.55
2022-08-25T10:00:23.573Z,4.57
2022-08-25T10:03:22.639Z,3.88
2022-08-25T10:06:13.658Z,4.13
2022-08-25T10:08:44.383Z,3.72
2022-08-25T10:11:29.044Z,4.32
2022-08-25T10:14:14.184Z,4.65
2022-08-25T10:16:42.544Z,4.38
2022-08-25T10:19:35.130Z,3.92
2022-08-25T10:22:32.218Z,4.07
2022-08-25T10:25:01.491Z,4.05
2022-08-25T10:27:53.794Z,4.40
2022-08-25T10:30:36.236Z,4.18
2022-08-25T10:33:22.251Z,4.20
2022-08-25T10:36:11.631Z,4.25
2022-08-25T10:39:01.492Z,4.13
2022-08-25T10:41:47.565Z,3.72
2022-08-25T10:44:51.674Z,4.43
2022-08-25T10:47:37.850Z,3.72
2022-08-25T10:50:27.230Z,4.10
2022-08-25T10:53:28.148Z,4.43
2022-08-25T10:56:17.284Z,4.40
2022-08-25T10:58:54.425Z,4.55
2022-08-25T11:01:38.967Z,4.32
2022-08-25T11:04:15.029Z,3.85
2022-08-25T11:06:57.179Z,3.42
2022-08-25T11:09:36.471Z,3.70
2022-08-25T11:12:16.939Z,3.58
2022-08-25T11:14:56.295Z,4.10
2022-08-25T11:17:27.201Z,3.60
2022-08-25T11:20:00.903Z,3.70
2022-08-25T11:22:42.376Z,3.90
2022-08-25T11:25:49.314Z,4.20
2022-08-25T11:28:30.658Z,3.85
2022-08-25T11:31:00.830Z,3.10
2022-08-25T11:33:30.637Z,3.65
2022-08-25T11:36:11.375Z,3.53
2022-08-25T11:39:04.953Z,3.67
2022-08-25T11:41:35.917Z,3.22
2022-08-25T11:44:25.530Z,3.40
2022-08-25T11:47:06.496Z,3.45
2022-08-25T11:49:54.653Z,3.20
2022-08-25T11:52:34.700Z,3.03
2022-08-25T11:55:17.921Z,3.28
2022-08-25T11:57:53.999Z,3.30
2022-08-25T12:00:43.589Z,3.05
2022-08-25T12:03:34.651Z,3.50
2022-08-25T12:06:29.135Z,3.42
2022-08-25T12:09:03.678Z,3.60
2022-08-25T12:11:48.508Z,3.60
2022-08-25T12:14:20.473Z,3.60
2022-08-25T12:17:00.251Z,3.60
2022-08-25T12:19:38.124Z,3.55
2022-08-25T12:22:08.931Z,3.47
2022-08-25T12:24:47.863Z,3.70
2022-08-25T12:27:41.510Z,3.50
2022-08-25T12:30:18.674Z,3.45
2022-08-25T12:33:01.219Z,3.60
2022-08-25T12:35:59.311Z,3.92
2022-08-25T12:38:30.423Z,4.10
2022-08-25T12:41:24.335Z,4.25
2022-08-25T12:44:08.870Z,3.75
2022-08-25T12:46:39.404Z,3.42
2022-08-25T12:49:29.973Z,3.38
2022-08-25T12:52:22.459Z,3.28
2022-08-25T12:55:03.582Z,3.35
2022-08-25T12:57:45.936Z,3.72
2022-08-25T13:00:45.757Z,3.53
2022-08-25T13:03:45.212Z,3.47
2022-08-25T13:06:25.873Z,3.63
2022-08-25T13:08:53.551Z,3.38
2022-08-25T13:12:03.001Z,3.25
2022-08-25T13:14:37.762Z,2.83
2022-08-25T13:17:06.830Z,2.90
2022-08-25T13:19:37.937Z,3.13
2022-08-25T13:22:16.017Z,3.28
2022-08-25T13:24:50.656Z,3.08
2022-08-25T13:27:37.480Z,3.20
2022-08-25T13:30:06.309Z,3.38
2022-08-25T13:32:38.898Z,3.30
2022-08-25T13:35:32.399Z,3.03
2022-08-25T13:38:20.961Z,3.00
2022-08-25T13:40:49.083Z,3.47
2022-08-25T13:43:17.346Z,3.28
2022-08-25T13:45:50.428Z,3.05
2022-08-25T13:48:33.078Z,3.60
2022-08-25T13:51:21.511Z,3.08
2022-08-25T13:54:08.588Z,3.80
2022-08-25T13:56:42.092Z,3.40
2022-08-25T13:59:40.037Z,3.47
2022-08-25T14:02:15.282Z,3.90
2022-08-25T14:04:51.156Z,3.50
2022-08-25T14:07:22.862Z,3.50
2022-08-25T14:09:58.748Z,3.42
2022-08-25T14:12:35.714Z,3.40
2022-08-25T14:15:26.556Z,2.85
2022-08-25T14:18:29.767Z,3.00
2022-08-25T14:20:58.785Z,3.08
2022-08-25T14:23:30.678Z,3.10
2022-08-25T14:25:59.443Z,3.08
2022-08-25T14:28:30.432Z,3.60
2022-08-25T14:31:27.730Z,3.13
2022-08-25T14:34:03.346Z,3.17
2022-08-25T14:36:33.139Z,3.85
2022-08-25T14:39:05.889Z,3.15
2022-08-25T14:41:38.873Z,3.00
2022-08-25T14:44:07.965Z,3.00
2022-08-25T14:46:45.702Z,2.75
2022-08-25T14:49:24.917Z,3.00
2022-08-25T14:51:53.463Z,3.08
2022-08-25T14:54:26.621Z,3.15
2022-08-25T14:56:55.966Z,3.00
2022-08-25T14:59:23.872Z,3.13
2022-08-25T15:01:51.710Z,2.92
2022-08-25T15:04:29.056Z,2.92
2022-08-25T15:07:00.106Z,3.28
2022-08-25T15:09:33.666Z,2.92
2022-08-25T15:12:01.835Z,3.53
2022-08-25T15:14:33.332Z,3.10
2022-08-25T15:17:03.392Z,3.53
2022-08-25T15:19:31.446Z,3.05
2022-08-25T15:21:59.243Z,2.58
2022-08-25T15:24:28.410Z,2.85
2022-08-25T15:26:59.159Z,3.60
2022-08-25T15:29:30.105Z,3.15
2022-08-25T15:32:00.394Z,2.55
2022-08-25T15:34:28.927Z,3.00
2022-08-25T15:37:07.135Z,3.00
2022-08-25T15:39:35.904Z,2.53
2022-08-25T15:42:05.361Z,2.90
2022-08-25T15:44:33.896Z,2.83
2022-08-25T15:47:04.167Z,2.80
2022-08-25T15:49:33.550Z,3.00
2022-08-25T15:52:01.595Z,2.63
2022-08-25T15:54:31.402Z,3.08
2022-08-25T15:56:59.843Z,3.15
2022-08-25T15:59:28.384Z,2.85
2022-08-25T16:01:56.905Z,2.63
2022-08-25T16:04:27.704Z,2.88
2022-08-25T16:06:56.008Z,3.22
2022-08-25T16:09:24.136Z,3.00
2022-08-25T16:11:56.094Z,3.20
2022-08-25T16:14:26.218Z,2.80
2022-08-25T16:16:58.227Z,2.80
2022-08-25T16:19:27.870Z,2.88
2022-08-25T16:21:56.340Z,2.78
2022-08-25T16:24:24.308Z,2.88
2022-08-25T16:26:52.617Z,2.90
2022-08-25T16:29:23.462Z,2.40
2022-08-25T16:31:53.309Z,2.65
2022-08-25T16:34:24.409Z,2.70
2022-08-25T16:36:53.922Z,2.90
2022-08-25T16:39:22.458Z,2.83
2022-08-25T16:41:52.598Z,3.05
2022-08-25T16:44:22.629Z,3.42
2022-08-25T16:46:54.317Z,2.80
2022-08-25T16:49:24.356Z,2.95
2022-08-25T16:51:56.654Z,3.13
2022-08-25T16:54:45.291Z,3.03
2022-08-25T16:57:13.571Z,2.90
2022-08-25T16:59:42.595Z,3.22
2022-08-25T17:02:12.139Z,3.13
2022-08-25T17:04:40.783Z,3.20
2022-08-25T17:07:08.972Z,2.92
2022-08-25T17:09:37.200Z,4.03
2022-08-25T17:12:05.094Z,3.17
2022-08-25T17:14:33.845Z,3.30
2022-08-25T17:17:02.553Z,3.35
2022-08-25T17:19:31.998Z,3.33
2022-08-25T17:22:00.033Z,3.95
2022-08-25T17:24:29.373Z,3.88
2022-08-25T17:27:00.173Z,3.67
2022-08-25T17:29:29.735Z,4.00
2022-08-25T17:31:58.601Z,4.45
2022-08-25T17:34:29.090Z,3.95
2022-08-25T17:36:58.543Z,3.90
2022-08-25T17:39:27.607Z,4.03
2022-08-25T17:41:56.487Z,3.95
2022-08-25T17:44:24.569Z,4.15
2022-08-25T17:46:52.670Z,4.10
2022-08-25T17:49:20.383Z,4.45
2022-08-25T17:51:48.648Z,4.78
2022-08-25T17:54:17.259Z,4.70
2022-08-25T17:56:44.984Z,4.53
2022-08-25T17:59:13.874Z,5.00
2022-08-25T18:01:42.066Z,4.80
2022-08-25T18:04:17.382Z,4.90
2022-08-25T18:06:48.431Z,12.70
2022-08-25T18:09:17.542Z,6.07
2022-08-25T18:11:46.224Z,5.57
2022-08-25T18:14:16.540Z,5.50
2022-08-25T18:16:45.212Z,5.38
2022-08-25T18:19:14.457Z,10.10
2022-08-25T18:21:43.345Z,11.05
2022-08-25T18:24:11.902Z,9.57
2022-08-25T18:26:41.679Z,6.45
2022-08-25T18:29:13.070Z,5.07
2022-08-25T18:31:42.437Z,5.18
2022-08-25T18:34:11.592Z,5.82
2022-08-25T18:36:40.415Z,4.85
2022-08-25T18:39:30.455Z,5.72
2022-08-25T18:42:01.699Z,5.63
2022-08-25T18:44:29.801Z,5.68
2022-08-25T18:46:57.998Z,5.22
2022-08-25T18:49:26.748Z,5.72
2022-08-25T18:51:56.382Z,5.00
2022-08-25T18:54:24.184Z,5.65
2022-08-25T18:56:53.957Z,6.13
2022-08-25T18:59:23.539Z,5.30
2022-08-25T19:01:53.906Z,6.05
2022-08-25T19:04:28.335Z,5.57
2022-08-25T19:07:00.367Z,6.40
2022-08-25T19:09:28.598Z,13.70
2022-08-25T19:11:57.309Z,5.47
2022-08-25T19:14:26.310Z,5.30
2022-08-25T19:16:54.966Z,5.63
2022-08-25T19:19:24.193Z,5.70
2022-08-25T19:21:52.109Z,5.20
2022-08-25T19:24:20.034Z,6.13
2022-08-25T19:26:53.806Z,5.90
2022-08-25T19:29:23.391Z,5.20
2022-08-25T19:31:52.060Z,6.30
2022-08-25T19:34:28.011Z,5.50
2022-08-25T19:37:01.408Z,6.25
2022-08-25T19:39:30.678Z,6.57
2022-08-25T19:41:58.657Z,6.10
2022-08-25T19:44:28.067Z,6.22
2022-08-25T19:46:56.391Z,6.28
2022-08-25T19:49:34.326Z,6.20
2022-08-25T19:52:10.662Z,7.18
2022-08-25T19:54:45.773Z,6.80
2022-08-25T19:57:28.467Z,7.03
2022-08-25T20:00:06.763Z,7.55
2022-08-25T20:02:40.463Z,6.72
2022-08-25T20:05:08.374Z,6.63
2022-08-25T20:07:36.354Z,6.88
2022-08-25T20:10:08.334Z,8.43
2022-08-25T20:12:44.697Z,13.43
2022-08-25T20:15:14.587Z,11.07
2022-08-25T20:17:45.162Z,9.63
2022-08-25T20:20:16.493Z,8.95
2022-08-25T20:22:44.543Z,7.82
2022-08-25T20:25:16.437Z,7.80
2022-08-25T20:27:48.603Z,7.97
2022-08-25T20:30:29.453Z,7.22
2022-08-25T20:32:58.165Z,7.60
2022-08-25T20:35:28.206Z,7.57
2022-08-25T20:37:58.307Z,7.75
2022-08-25T20:40:28.640Z,7.18
2022-08-25T20:43:04.377Z,6.28
2022-08-25T20:45:32.306Z,6.82
2022-08-25T20:48:00.319Z,8.07
2022-08-25T20:50:28.714Z,8.18
2022-08-25T20:52:58.694Z,7.30
2022-08-25T20:55:27.785Z,7.10
2022-08-25T20:57:56.142Z,7.55
2022-08-25T21:00:24.986Z,7.55
2022-08-25T21:02:53.404Z,9.20
2022-08-25T21:05:21.494Z,8.55
2022-08-25T21:07:49.402Z,8.65
2022-08-25T21:10:17.263Z,7.78
2022-08-25T21:12:45.272Z,7.97
2022-08-25T21:15:18.041Z,8.30
2022-08-25T21:17:50.592Z,8.40
2022-08-25T21:20:18.693Z,8.38
2022-08-25T21:22:46.430Z,8.50
2022-08-25T21:25:14.627Z,9.75
2022-08-25T21:27:43.457Z,9.00
2022-08-25T21:30:12.209Z,8.90
2022-08-25T21:32:39.874Z,9.32
2022-08-25T21:35:22.689Z,8.77
2022-08-25T21:37:53.371Z,8.88
2022-08-25T21:40:22.776Z,8.23
2022-08-25T21:42:51.978Z,8.70
2022-08-25T21:45:20.933Z,8.20
2022-08-25T21:47:50.071Z,8.43
2022-08-25T21:50:19.828Z,8.60
2022-08-25T21:52:47.529Z,8.77
2022-08-25T21:55:23.150Z,7.90
2022-08-25T21:57:51.421Z,9.00
2022-08-25T22:00:19.310Z,7.97
2022-08-25T22:02:49.634Z,8.50
2022-08-25T22:05:17.332Z,8.90
2022-08-25T22:07:45.119Z,8.60
2022-08-25T22:10:17.783Z,8.90
2022-08-25T22:12:48.657Z,8.20
2022-08-25T22:15:18.077Z,8.23
2022-08-25T22:17:47.896Z,8.35
2022-08-25T22:20:17.522Z,8.20
2022-08-25T22:22:45.390Z,8.13
2022-08-25T22:25:13.888Z,7.88
2022-08-25T22:27:42.443Z,8.70
2022-08-25T22:30:10.964Z,8.45
2022-08-25T22:32:38.616Z,8.60
2022-08-25T22:35:07.142Z,9.45
2022-08-25T22:37:36.189Z,9.10
2022-08-25T22:40:05.254Z,8.73
2022-08-25T22:42:33.011Z,9.10
2022-08-25T22:45:01.237Z,9.02
2022-08-25T22:47:29.058Z,8.93
2022-08-25T22:49:58.794Z,9.15
2022-08-25T22:52:33.321Z,8.98
2022-08-25T22:55:02.812Z,9.23
2022-08-25T22:57:30.773Z,9.38
2022-08-25T22:59:59.303Z,9.18
2022-08-25T23:02:27.689Z,8.80
2022-08-25T23:05:00.833Z,9.82
2022-08-25T23:07:29.122Z,9.05
2022-08-25T23:09:58.727Z,9.50
2022-08-25T23:12:26.623Z,9.80
2022-08-25T23:14:54.617Z,10.05
2022-08-25T23:17:22.547Z,9.55
2022-08-25T23:19:50.456Z,10.10
2022-08-25T23:22:18.264Z,10.23
2022-08-25T23:24:52.089Z,9.23
2022-08-25T23:27:22.180Z,9.50
2022-08-25T23:29:50.565Z,9.75
2022-08-25T23:32:18.853Z,10.18
2022-08-25T23:34:47.399Z,9.20
2022-08-25T23:37:18.473Z,9.80
2022-08-25T23:39:49.864Z,9.80
2022-08-25T23:42:20.096Z,9.30
2022-08-25T23:44:49.369Z,8.90
2022-08-25T23:47:17.763Z,9.15
2022-08-25T23:49:48.028Z,9.13
2022-08-25T23:52:17.444Z,9.18
2022-08-25T23:54:46.465Z,9.23
2022-08-25T23:57:14.848Z,9.63
2022-08-25T23:59:43.343Z,9.63
